sensor_id;sensor_type;location;lat;lon;timestamp;temperature;humidity
40153;DHT22;26371;56.992;23.912;2022-10-31T00:01:37;7.90;99.90
40153;DHT22;26371;56.992;23.912;2022-10-31T00:04:06;7.80;99.90
40153;DHT22;26371;56.992;23.912;2022-10-31T00:06:36;7.80;99.90
40153;DHT22;26371;56.992;23.912;2022-10-31T00:09:05;7.90;99.90
40153;DHT22;26371;56.992;23.912;2022-10-31T00:11:33;7.90;99.90
40153;DHT22;26371;56.992;23.912;2022-10-31T00:14:02;7.90;99.90
40153;DHT22;26371;56.992;23.912;2022-10-31T00:16:31;7.90;99.90
40153;DHT22;26371;56.992;23.912;2022-10-31T00:19:01;7.90;99.90
40153;DHT22;26371;56.992;23.912;2022-10-31T00:21:31;7.90;99.90
40153;DHT22;26371;56.992;23.912;2022-10-31T00:24:01;7.90;99.90
40153;DHT22;26371;56.992;23.912;2022-10-31T00:26:30;7.90;99.90
40153;DHT22;26371;56.992;23.912;2022-10-31T00:29:00;7.90;99.90
40153;DHT22;26371;56.992;23.912;2022-10-31T00:31:29;7.90;99.90
40153;DHT22;26371;56.992;23.912;2022-10-31T00:33:59;7.90;99.90
40153;DHT22;26371;56.992;23.912;2022-10-31T00:36:30;7.90;99.90
40153;DHT22;26371;56.992;23.912;2022-10-31T00:38:58;7.90;99.90
40153;DHT22;26371;56.992;23.912;2022-10-31T00:41:29;7.90;99.90
40153;DHT22;26371;56.992;23.912;2022-10-31T00:43:58;8.00;99.90
40153;DHT22;26371;56.992;23.912;2022-10-31T00:46:27;8.00;99.90
40153;DHT22;26371;56.992;23.912;2022-10-31T00:48:56;8.00;99.90
40153;DHT22;26371;56.992;23.912;2022-10-31T00:51:25;8.00;99.90
40153;DHT22;26371;56.992;23.912;2022-10-31T00:53:53;7.90;99.90
40153;DHT22;26371;56.992;23.912;2022-10-31T00:56:22;7.90;99.90
40153;DHT22;26371;56.992;23.912;2022-10-31T00:58:53;7.90;99.90
40153;DHT22;26371;56.992;23.912;2022-10-31T01:01:21;7.90;99.90
40153;DHT22;26371;56.992;23.912;2022-10-31T01:03:51;7.90;99.90
40153;DHT22;26371;56.992;23.912;2022-10-31T01:06:19;7.90;99.90
40153;DHT22;26371;56.992;23.912;2022-10-31T01:08:48;7.90;99.90
40153;DHT22;26371;56.992;23.912;2022-10-31T01:11:19;7.90;99.90
40153;DHT22;26371;56.992;23.912;2022-10-31T01:13:50;7.90;99.90
40153;DHT22;26371;56.992;23.912;2022-10-31T01:16:23;7.90;99.90
40153;DHT22;26371;56.992;23.912;2022-10-31T01:18:52;7.90;99.90
40153;DHT22;26371;56.992;23.912;2022-10-31T01:21:23;7.90;99.90
40153;DHT22;26371;56.992;23.912;2022-10-31T01:23:54;7.90;99.90
40153;DHT22;26371;56.992;23.912;2022-10-31T01:26:24;7.90;99.90
40153;DHT22;26371;56.992;23.912;2022-10-31T01:28:54;7.80;99.90
40153;DHT22;26371;56.992;23.912;2022-10-31T01:31:27;7.80;99.90
40153;DHT22;26371;56.992;23.912;2022-10-31T01:33:58;7.90;99.90
40153;DHT22;26371;56.992;23.912;2022-10-31T01:36:28;7.80;99.90
40153;DHT22;26371;56.992;23.912;2022-10-31T01:38:59;7.80;99.90
40153;DHT22;26371;56.992;23.912;2022-10-31T01:41:31;7.80;99.90
40153;DHT22;26371;56.992;23.912;2022-10-31T01:44:02;7.80;99.90
40153;DHT22;26371;56.992;23.912;2022-10-31T01:46:37;7.90;99.90
40153;DHT22;26371;56.992;23.912;2022-10-31T01:49:13;7.90;99.90
40153;DHT22;26371;56.992;23.912;2022-10-31T01:51:46;7.90;99.90
40153;DHT22;26371;56.992;23.912;2022-10-31T01:54:18;7.80;99.90
40153;DHT22;26371;56.992;23.912;2022-10-31T01:56:50;7.80;99.90
40153;DHT22;26371;56.992;23.912;2022-10-31T01:59:22;7.90;99.90
40153;DHT22;26371;56.992;23.912;2022-10-31T02:01:54;7.90;99.90
40153;DHT22;26371;56.992;23.912;2022-10-31T02:04:24;7.90;99.90
40153;DHT22;26371;56.992;23.912;2022-10-31T02:06:56;7.90;99.90
40153;DHT22;26371;56.992;23.912;2022-10-31T02:09:27;8.00;99.90
40153;DHT22;26371;56.992;23.912;2022-10-31T02:11:58;7.90;99.90
40153;DHT22;26371;56.992;23.912;2022-10-31T02:14:30;7.90;99.90
40153;DHT22;26371;56.992;23.912;2022-10-31T02:17:00;8.00;99.90
40153;DHT22;26371;56.992;23.912;2022-10-31T02:19:40;8.00;99.90
40153;DHT22;26371;56.992;23.912;2022-10-31T02:22:17;8.00;99.90
40153;DHT22;26371;56.992;23.912;2022-10-31T02:25:02;7.90;99.90
40153;DHT22;26371;56.992;23.912;2022-10-31T02:27:57;7.90;99.90
40153;DHT22;26371;56.992;23.912;2022-10-31T02:30:36;7.90;99.90
40153;DHT22;26371;56.992;23.912;2022-10-31T02:33:18;7.90;99.90
40153;DHT22;26371;56.992;23.912;2022-10-31T02:35:56;7.80;99.90
40153;DHT22;26371;56.992;23.912;2022-10-31T02:38:38;7.80;99.90
40153;DHT22;26371;56.992;23.912;2022-10-31T02:41:20;7.80;99.90
40153;DHT22;26371;56.992;23.912;2022-10-31T02:44:05;7.80;99.90
40153;DHT22;26371;56.992;23.912;2022-10-31T02:46:43;7.80;99.90
40153;DHT22;26371;56.992;23.912;2022-10-31T02:49:23;7.80;99.90
40153;DHT22;26371;56.992;23.912;2022-10-31T02:51:53;7.70;99.90
40153;DHT22;26371;56.992;23.912;2022-10-31T02:54:23;7.60;99.90
40153;DHT22;26371;56.992;23.912;2022-10-31T02:56:56;7.60;99.90
40153;DHT22;26371;56.992;23.912;2022-10-31T02:59:27;7.60;99.90
40153;DHT22;26371;56.992;23.912;2022-10-31T03:05:27;7.60;99.90
40153;DHT22;26371;56.992;23.912;2022-10-31T03:08:05;7.60;99.90
40153;DHT22;26371;56.992;23.912;2022-10-31T03:10:40;7.60;99.90
40153;DHT22;26371;56.992;23.912;2022-10-31T03:13:14;7.60;99.90
40153;DHT22;26371;56.992;23.912;2022-10-31T03:15:50;7.60;99.90
40153;DHT22;26371;56.992;23.912;2022-10-31T03:18:22;7.60;99.90
40153;DHT22;26371;56.992;23.912;2022-10-31T03:21:00;7.60;99.90
40153;DHT22;26371;56.992;23.912;2022-10-31T03:23:32;7.60;99.90
40153;DHT22;26371;56.992;23.912;2022-10-31T03:26:05;7.60;99.90
40153;DHT22;26371;56.992;23.912;2022-10-31T03:28:41;7.60;99.90
40153;DHT22;26371;56.992;23.912;2022-10-31T03:31:13;7.60;99.90
40153;DHT22;26371;56.992;23.912;2022-10-31T03:33:45;7.60;99.90
40153;DHT22;26371;56.992;23.912;2022-10-31T03:36:17;7.50;99.90
40153;DHT22;26371;56.992;23.912;2022-10-31T03:38:46;7.50;99.90
40153;DHT22;26371;56.992;23.912;2022-10-31T03:41:21;7.40;99.90
40153;DHT22;26371;56.992;23.912;2022-10-31T03:43:55;7.50;99.90
40153;DHT22;26371;56.992;23.912;2022-10-31T03:46:25;7.50;99.90
40153;DHT22;26371;56.992;23.912;2022-10-31T03:48:56;7.50;99.90
40153;DHT22;26371;56.992;23.912;2022-10-31T03:51:32;7.40;99.90
40153;DHT22;26371;56.992;23.912;2022-10-31T03:54:09;7.40;99.90
40153;DHT22;26371;56.992;23.912;2022-10-31T03:56:43;7.40;99.90
40153;DHT22;26371;56.992;23.912;2022-10-31T03:59:17;7.40;99.90
40153;DHT22;26371;56.992;23.912;2022-10-31T04:01:51;7.30;99.90
40153;DHT22;26371;56.992;23.912;2022-10-31T04:04:21;7.30;99.90
40153;DHT22;26371;56.992;23.912;2022-10-31T04:06:52;7.30;99.90
40153;DHT22;26371;56.992;23.912;2022-10-31T04:09:24;7.20;99.90
40153;DHT22;26371;56.992;23.912;2022-10-31T04:11:57;7.20;99.90
40153;DHT22;26371;56.992;23.912;2022-10-31T04:14:44;7.20;99.90
40153;DHT22;26371;56.992;23.912;2022-10-31T04:17:16;7.20;99.90
40153;DHT22;26371;56.992;23.912;2022-10-31T04:19:46;7.20;99.90
40153;DHT22;26371;56.992;23.912;2022-10-31T04:22:17;7.20;99.90
40153;DHT22;26371;56.992;23.912;2022-10-31T04:24:45;7.10;99.90
40153;DHT22;26371;56.992;23.912;2022-10-31T04:27:16;7.10;99.90
40153;DHT22;26371;56.992;23.912;2022-10-31T04:29:45;7.10;99.90
40153;DHT22;26371;56.992;23.912;2022-10-31T04:32:17;7.10;99.90
40153;DHT22;26371;56.992;23.912;2022-10-31T04:34:46;7.10;99.90
40153;DHT22;26371;56.992;23.912;2022-10-31T04:37:16;7.10;99.90
40153;DHT22;26371;56.992;23.912;2022-10-31T04:39:46;7.20;99.90
40153;DHT22;26371;56.992;23.912;2022-10-31T04:42:35;7.20;99.90
40153;DHT22;26371;56.992;23.912;2022-10-31T04:45:06;7.20;99.90
40153;DHT22;26371;56.992;23.912;2022-10-31T04:47:36;7.30;99.90
40153;DHT22;26371;56.992;23.912;2022-10-31T04:50:06;7.20;99.90
40153;DHT22;26371;56.992;23.912;2022-10-31T04:52:40;7.30;99.90
40153;DHT22;26371;56.992;23.912;2022-10-31T04:55:11;7.30;99.90
40153;DHT22;26371;56.992;23.912;2022-10-31T04:57:59;7.30;99.90
40153;DHT22;26371;56.992;23.912;2022-10-31T05:00:28;7.30;99.90
40153;DHT22;26371;56.992;23.912;2022-10-31T05:02:58;7.20;99.90
40153;DHT22;26371;56.992;23.912;2022-10-31T05:05:31;7.20;99.90
40153;DHT22;26371;56.992;23.912;2022-10-31T05:08:04;7.20;99.90
40153;DHT22;26371;56.992;23.912;2022-10-31T05:10:33;7.10;99.90
40153;DHT22;26371;56.992;23.912;2022-10-31T05:13:03;7.00;99.90
40153;DHT22;26371;56.992;23.912;2022-10-31T05:16:08;6.90;99.90
40153;DHT22;26371;56.992;23.912;2022-10-31T05:18:49;6.80;99.90
40153;DHT22;26371;56.992;23.912;2022-10-31T05:21:44;6.70;99.90
40153;DHT22;26371;56.992;23.912;2022-10-31T05:24:14;6.50;99.90
40153;DHT22;26371;56.992;23.912;2022-10-31T05:26:47;6.40;99.90
40153;DHT22;26371;56.992;23.912;2022-10-31T05:29:16;6.30;99.90
40153;DHT22;26371;56.992;23.912;2022-10-31T05:31:44;6.20;99.90
40153;DHT22;26371;56.992;23.912;2022-10-31T05:34:33;6.10;99.90
40153;DHT22;26371;56.992;23.912;2022-10-31T05:37:25;6.00;99.90
40153;DHT22;26371;56.992;23.912;2022-10-31T05:39:55;5.90;99.90
40153;DHT22;26371;56.992;23.912;2022-10-31T05:42:26;5.90;99.90
40153;DHT22;26371;56.992;23.912;2022-10-31T05:44:54;5.80;99.90
40153;DHT22;26371;56.992;23.912;2022-10-31T05:47:50;5.70;99.90
40153;DHT22;26371;56.992;23.912;2022-10-31T05:50:39;5.60;99.90
40153;DHT22;26371;56.992;23.912;2022-10-31T05:53:10;5.50;99.90
40153;DHT22;26371;56.992;23.912;2022-10-31T05:55:42;5.50;99.90
40153;DHT22;26371;56.992;23.912;2022-10-31T05:58:14;5.50;99.90
40153;DHT22;26371;56.992;23.912;2022-10-31T06:00:50;5.60;99.90
40153;DHT22;26371;56.992;23.912;2022-10-31T06:03:20;5.50;99.90
40153;DHT22;26371;56.992;23.912;2022-10-31T06:05:55;5.40;99.90
40153;DHT22;26371;56.992;23.912;2022-10-31T06:08:28;5.40;99.90
40153;DHT22;26371;56.992;23.912;2022-10-31T06:11:02;5.40;99.90
40153;DHT22;26371;56.992;23.912;2022-10-31T06:14:10;5.40;99.90
40153;DHT22;26371;56.992;23.912;2022-10-31T06:16:50;5.40;99.90
40153;DHT22;26371;56.992;23.912;2022-10-31T06:19:39;5.30;99.90
40153;DHT22;26371;56.992;23.912;2022-10-31T06:22:13;5.30;99.90
40153;DHT22;26371;56.992;23.912;2022-10-31T06:24:43;5.30;99.90
40153;DHT22;26371;56.992;23.912;2022-10-31T06:27:39;5.30;99.90
40153;DHT22;26371;56.992;23.912;2022-10-31T06:30:14;5.30;99.90
40153;DHT22;26371;56.992;23.912;2022-10-31T06:32:45;5.20;99.90
40153;DHT22;26371;56.992;23.912;2022-10-31T06:35:14;5.20;99.90
40153;DHT22;26371;56.992;23.912;2022-10-31T06:37:42;5.10;99.90
40153;DHT22;26371;56.992;23.912;2022-10-31T06:40:36;5.20;99.90
40153;DHT22;26371;56.992;23.912;2022-10-31T06:43:27;5.20;99.90
40153;DHT22;26371;56.992;23.912;2022-10-31T06:46:12;5.20;99.90
40153;DHT22;26371;56.992;23.912;2022-10-31T06:49:00;5.30;99.90
40153;DHT22;26371;56.992;23.912;2022-10-31T06:51:38;5.30;99.90
40153;DHT22;26371;56.992;23.912;2022-10-31T06:54:07;5.30;99.90
40153;DHT22;26371;56.992;23.912;2022-10-31T06:56:36;5.30;99.90
40153;DHT22;26371;56.992;23.912;2022-10-31T06:59:06;5.40;99.90
40153;DHT22;26371;56.992;23.912;2022-10-31T07:01:58;5.50;99.90
40153;DHT22;26371;56.992;23.912;2022-10-31T07:04:28;5.60;99.90
40153;DHT22;26371;56.992;23.912;2022-10-31T07:06:56;5.60;99.90
40153;DHT22;26371;56.992;23.912;2022-10-31T07:09:25;5.70;99.90
40153;DHT22;26371;56.992;23.912;2022-10-31T07:11:56;5.80;99.90
40153;DHT22;26371;56.992;23.912;2022-10-31T07:14:27;5.80;99.90
40153;DHT22;26371;56.992;23.912;2022-10-31T07:16:55;5.90;99.90
40153;DHT22;26371;56.992;23.912;2022-10-31T07:19:31;6.00;99.90
40153;DHT22;26371;56.992;23.912;2022-10-31T07:22:01;6.00;99.90
40153;DHT22;26371;56.992;23.912;2022-10-31T07:24:30;6.10;99.90
40153;DHT22;26371;56.992;23.912;2022-10-31T07:27:17;6.10;99.90
40153;DHT22;26371;56.992;23.912;2022-10-31T07:29:49;6.10;99.90
40153;DHT22;26371;56.992;23.912;2022-10-31T07:32:18;6.10;99.90
40153;DHT22;26371;56.992;23.912;2022-10-31T07:34:52;6.10;99.90
40153;DHT22;26371;56.992;23.912;2022-10-31T07:37:23;6.10;99.90
40153;DHT22;26371;56.992;23.912;2022-10-31T07:39:57;6.20;99.90
40153;DHT22;26371;56.992;23.912;2022-10-31T07:42:26;6.20;99.90
40153;DHT22;26371;56.992;23.912;2022-10-31T07:44:56;6.20;99.90
40153;DHT22;26371;56.992;23.912;2022-10-31T07:47:54;6.10;99.90
40153;DHT22;26371;56.992;23.912;2022-10-31T07:50:43;6.20;99.90
40153;DHT22;26371;56.992;23.912;2022-10-31T07:53:45;6.30;99.90
40153;DHT22;26371;56.992;23.912;2022-10-31T07:56:22;6.20;99.90
40153;DHT22;26371;56.992;23.912;2022-10-31T07:58:52;6.20;99.90
40153;DHT22;26371;56.992;23.912;2022-10-31T08:01:22;6.30;99.90
40153;DHT22;26371;56.992;23.912;2022-10-31T08:04:14;6.30;99.90
40153;DHT22;26371;56.992;23.912;2022-10-31T08:07:01;6.30;99.90
40153;DHT22;26371;56.992;23.912;2022-10-31T08:09:34;6.40;99.90
40153;DHT22;26371;56.992;23.912;2022-10-31T08:12:13;6.40;99.90
40153;DHT22;26371;56.992;23.912;2022-10-31T08:14:42;6.50;99.90
40153;DHT22;26371;56.992;23.912;2022-10-31T08:17:12;6.50;99.90
40153;DHT22;26371;56.992;23.912;2022-10-31T08:19:49;6.70;99.90
40153;DHT22;26371;56.992;23.912;2022-10-31T08:22:22;6.80;99.90
40153;DHT22;26371;56.992;23.912;2022-10-31T08:24:51;6.90;99.90
40153;DHT22;26371;56.992;23.912;2022-10-31T08:27:20;7.00;99.90
40153;DHT22;26371;56.992;23.912;2022-10-31T08:29:49;7.10;99.90
40153;DHT22;26371;56.992;23.912;2022-10-31T08:32:19;7.10;99.90
40153;DHT22;26371;56.992;23.912;2022-10-31T08:34:57;7.20;99.90
40153;DHT22;26371;56.992;23.912;2022-10-31T08:37:41;7.20;99.90
40153;DHT22;26371;56.992;23.912;2022-10-31T08:40:11;7.40;99.90
40153;DHT22;26371;56.992;23.912;2022-10-31T08:42:40;7.40;99.90
40153;DHT22;26371;56.992;23.912;2022-10-31T08:45:09;7.50;99.90
40153;DHT22;26371;56.992;23.912;2022-10-31T08:47:39;7.60;99.90
40153;DHT22;26371;56.992;23.912;2022-10-31T08:50:08;7.70;99.90
40153;DHT22;26371;56.992;23.912;2022-10-31T08:52:37;7.70;99.90
40153;DHT22;26371;56.992;23.912;2022-10-31T08:55:26;7.70;99.90
40153;DHT22;26371;56.992;23.912;2022-10-31T08:58:04;7.80;99.90
40153;DHT22;26371;56.992;23.912;2022-10-31T09:00:40;7.80;99.90
40153;DHT22;26371;56.992;23.912;2022-10-31T09:03:18;7.80;99.90
40153;DHT22;26371;56.992;23.912;2022-10-31T09:05:47;7.80;99.90
40153;DHT22;26371;56.992;23.912;2022-10-31T09:08:16;7.80;99.90
40153;DHT22;26371;56.992;23.912;2022-10-31T09:10:47;7.90;99.90
40153;DHT22;26371;56.992;23.912;2022-10-31T09:13:22;7.90;99.90
40153;DHT22;26371;56.992;23.912;2022-10-31T09:16:20;7.90;99.90
40153;DHT22;26371;56.992;23.912;2022-10-31T09:18:50;8.00;99.90
40153;DHT22;26371;56.992;23.912;2022-10-31T09:21:19;8.00;99.90
40153;DHT22;26371;56.992;23.912;2022-10-31T09:23:48;8.10;99.90
40153;DHT22;26371;56.992;23.912;2022-10-31T09:26:16;8.10;99.90
40153;DHT22;26371;56.992;23.912;2022-10-31T09:28:55;8.10;99.90
40153;DHT22;26371;56.992;23.912;2022-10-31T09:31:25;8.10;99.90
40153;DHT22;26371;56.992;23.912;2022-10-31T09:34:06;8.10;99.90
40153;DHT22;26371;56.992;23.912;2022-10-31T09:36:37;8.20;99.90
40153;DHT22;26371;56.992;23.912;2022-10-31T09:39:11;8.20;99.90
40153;DHT22;26371;56.992;23.912;2022-10-31T09:41:55;8.20;99.90
40153;DHT22;26371;56.992;23.912;2022-10-31T09:44:37;8.30;99.90
40153;DHT22;26371;56.992;23.912;2022-10-31T09:47:28;8.30;99.90
40153;DHT22;26371;56.992;23.912;2022-10-31T09:50:22;8.30;99.90
40153;DHT22;26371;56.992;23.912;2022-10-31T09:52:58;8.30;99.90
40153;DHT22;26371;56.992;23.912;2022-10-31T09:55:35;8.30;99.90
40153;DHT22;26371;56.992;23.912;2022-10-31T09:58:06;8.40;99.90
40153;DHT22;26371;56.992;23.912;2022-10-31T10:00:37;8.40;99.90
40153;DHT22;26371;56.992;23.912;2022-10-31T10:03:11;8.50;99.90
40153;DHT22;26371;56.992;23.912;2022-10-31T10:05:49;8.50;99.90
40153;DHT22;26371;56.992;23.912;2022-10-31T10:08:32;8.50;99.90
40153;DHT22;26371;56.992;23.912;2022-10-31T10:11:42;8.60;99.90
40153;DHT22;26371;56.992;23.912;2022-10-31T10:14:33;8.60;99.90
40153;DHT22;26371;56.992;23.912;2022-10-31T10:17:18;8.60;99.90
40153;DHT22;26371;56.992;23.912;2022-10-31T10:20:10;8.70;99.90
40153;DHT22;26371;56.992;23.912;2022-10-31T10:22:55;8.70;99.90
40153;DHT22;26371;56.992;23.912;2022-10-31T10:25:33;8.70;99.90
40153;DHT22;26371;56.992;23.912;2022-10-31T10:28:15;8.70;99.90
40153;DHT22;26371;56.992;23.912;2022-10-31T10:30:48;8.70;99.90
40153;DHT22;26371;56.992;23.912;2022-10-31T10:33:21;8.80;99.90
40153;DHT22;26371;56.992;23.912;2022-10-31T10:35:53;8.80;99.90
40153;DHT22;26371;56.992;23.912;2022-10-31T10:38:30;8.80;99.90
40153;DHT22;26371;56.992;23.912;2022-10-31T10:41:07;8.80;99.90
40153;DHT22;26371;56.992;23.912;2022-10-31T10:43:38;8.90;99.90
40153;DHT22;26371;56.992;23.912;2022-10-31T10:46:18;8.80;99.90
40153;DHT22;26371;56.992;23.912;2022-10-31T10:49:22;8.80;99.90
40153;DHT22;26371;56.992;23.912;2022-10-31T10:51:58;8.90;99.90
40153;DHT22;26371;56.992;23.912;2022-10-31T10:54:59;8.80;99.90
40153;DHT22;26371;56.992;23.912;2022-10-31T10:57:43;8.80;99.90
40153;DHT22;26371;56.992;23.912;2022-10-31T11:00:18;8.90;99.90
40153;DHT22;26371;56.992;23.912;2022-10-31T11:02:47;8.90;99.90
40153;DHT22;26371;56.992;23.912;2022-10-31T11:05:24;8.90;99.90
40153;DHT22;26371;56.992;23.912;2022-10-31T11:07:54;8.90;99.90
40153;DHT22;26371;56.992;23.912;2022-10-31T11:10:24;8.90;99.90
40153;DHT22;26371;56.992;23.912;2022-10-31T11:13:06;8.90;99.90
40153;DHT22;26371;56.992;23.912;2022-10-31T11:15:51;9.00;99.90
40153;DHT22;26371;56.992;23.912;2022-10-31T11:18:24;9.00;99.90
40153;DHT22;26371;56.992;23.912;2022-10-31T11:20:56;9.00;99.90
40153;DHT22;26371;56.992;23.912;2022-10-31T11:23:26;9.00;99.90
40153;DHT22;26371;56.992;23.912;2022-10-31T11:25:58;9.00;99.90
40153;DHT22;26371;56.992;23.912;2022-10-31T11:28:30;8.90;99.90
40153;DHT22;26371;56.992;23.912;2022-10-31T11:31:05;8.90;99.90
40153;DHT22;26371;56.992;23.912;2022-10-31T11:33:35;8.90;99.90
40153;DHT22;26371;56.992;23.912;2022-10-31T11:36:15;8.90;99.90
40153;DHT22;26371;56.992;23.912;2022-10-31T11:38:44;8.90;99.90
40153;DHT22;26371;56.992;23.912;2022-10-31T11:41:17;8.90;99.90
40153;DHT22;26371;56.992;23.912;2022-10-31T11:43:49;8.80;99.90
40153;DHT22;26371;56.992;23.912;2022-10-31T11:46:22;8.80;99.90
40153;DHT22;26371;56.992;23.912;2022-10-31T11:48:54;8.80;99.90
40153;DHT22;26371;56.992;23.912;2022-10-31T11:51:25;8.90;99.90
40153;DHT22;26371;56.992;23.912;2022-10-31T11:53:57;8.90;99.90
40153;DHT22;26371;56.992;23.912;2022-10-31T11:56:40;8.80;99.90
40153;DHT22;26371;56.992;23.912;2022-10-31T11:59:18;8.90;99.90
40153;DHT22;26371;56.992;23.912;2022-10-31T12:01:51;8.90;99.90
40153;DHT22;26371;56.992;23.912;2022-10-31T12:04:27;8.90;99.90
40153;DHT22;26371;56.992;23.912;2022-10-31T12:06:57;9.00;99.90
40153;DHT22;26371;56.992;23.912;2022-10-31T12:09:26;9.00;99.90
40153;DHT22;26371;56.992;23.912;2022-10-31T12:12:17;9.10;99.90
40153;DHT22;26371;56.992;23.912;2022-10-31T12:14:57;9.10;99.90
40153;DHT22;26371;56.992;23.912;2022-10-31T12:17:34;9.10;99.90
40153;DHT22;26371;56.992;23.912;2022-10-31T12:20:13;9.10;99.90
40153;DHT22;26371;56.992;23.912;2022-10-31T12:22:51;9.10;99.90
40153;DHT22;26371;56.992;23.912;2022-10-31T12:25:28;9.20;99.90
40153;DHT22;26371;56.992;23.912;2022-10-31T12:28:11;9.20;99.90
40153;DHT22;26371;56.992;23.912;2022-10-31T12:30:52;9.10;99.90
40153;DHT22;26371;56.992;23.912;2022-10-31T12:33:33;9.10;99.90
40153;DHT22;26371;56.992;23.912;2022-10-31T12:36:19;9.10;99.90
40153;DHT22;26371;56.992;23.912;2022-10-31T12:39:02;9.10;99.90
40153;DHT22;26371;56.992;23.912;2022-10-31T12:41:45;9.20;99.90
40153;DHT22;26371;56.992;23.912;2022-10-31T12:44:27;9.20;99.90
40153;DHT22;26371;56.992;23.912;2022-10-31T12:47:20;9.10;99.90
40153;DHT22;26371;56.992;23.912;2022-10-31T12:49:59;9.10;99.90
40153;DHT22;26371;56.992;23.912;2022-10-31T12:52:43;9.20;99.90
40153;DHT22;26371;56.992;23.912;2022-10-31T12:55:25;9.10;99.90
40153;DHT22;26371;56.992;23.912;2022-10-31T12:58:00;9.10;99.90
40153;DHT22;26371;56.992;23.912;2022-10-31T13:00:31;9.00;99.90
40153;DHT22;26371;56.992;23.912;2022-10-31T13:03:20;8.90;99.90
40153;DHT22;26371;56.992;23.912;2022-10-31T13:05:54;9.00;99.90
40153;DHT22;26371;56.992;23.912;2022-10-31T13:08:30;8.90;99.90
40153;DHT22;26371;56.992;23.912;2022-10-31T13:11:06;8.90;99.90
40153;DHT22;26371;56.992;23.912;2022-10-31T13:13:39;8.90;99.90
40153;DHT22;26371;56.992;23.912;2022-10-31T13:16:14;8.80;99.90
40153;DHT22;26371;56.992;23.912;2022-10-31T13:18:46;8.80;99.90
40153;DHT22;26371;56.992;23.912;2022-10-31T13:21:19;8.70;99.90
40153;DHT22;26371;56.992;23.912;2022-10-31T13:23:50;8.70;99.90
40153;DHT22;26371;56.992;23.912;2022-10-31T13:26:31;8.70;99.90
40153;DHT22;26371;56.992;23.912;2022-10-31T13:29:08;8.70;99.90
40153;DHT22;26371;56.992;23.912;2022-10-31T13:31:41;8.70;99.90
40153;DHT22;26371;56.992;23.912;2022-10-31T13:34:20;8.60;99.90
40153;DHT22;26371;56.992;23.912;2022-10-31T13:36:59;8.60;99.90
40153;DHT22;26371;56.992;23.912;2022-10-31T13:39:39;8.60;99.90
40153;DHT22;26371;56.992;23.912;2022-10-31T13:42:15;8.50;99.90
40153;DHT22;26371;56.992;23.912;2022-10-31T13:44:46;8.50;99.90
40153;DHT22;26371;56.992;23.912;2022-10-31T13:47:24;8.50;99.90
40153;DHT22;26371;56.992;23.912;2022-10-31T13:50:05;8.50;99.90
40153;DHT22;26371;56.992;23.912;2022-10-31T13:52:34;8.40;99.90
40153;DHT22;26371;56.992;23.912;2022-10-31T13:55:07;8.40;99.90
40153;DHT22;26371;56.992;23.912;2022-10-31T13:57:55;8.30;99.90
40153;DHT22;26371;56.992;23.912;2022-10-31T14:00:25;8.30;99.90
40153;DHT22;26371;56.992;23.912;2022-10-31T14:02:57;8.30;99.90
40153;DHT22;26371;56.992;23.912;2022-10-31T14:05:29;8.30;99.90
40153;DHT22;26371;56.992;23.912;2022-10-31T14:08:00;8.20;99.90
40153;DHT22;26371;56.992;23.912;2022-10-31T14:10:32;8.20;99.90
40153;DHT22;26371;56.992;23.912;2022-10-31T14:13:07;8.20;99.90
40153;DHT22;26371;56.992;23.912;2022-10-31T14:15:38;8.20;99.90
40153;DHT22;26371;56.992;23.912;2022-10-31T14:18:23;8.20;99.90
40153;DHT22;26371;56.992;23.912;2022-10-31T14:20:52;8.10;99.90
40153;DHT22;26371;56.992;23.912;2022-10-31T14:23:36;8.10;99.90
40153;DHT22;26371;56.992;23.912;2022-10-31T14:26:18;8.10;99.90
40153;DHT22;26371;56.992;23.912;2022-10-31T14:28:48;8.10;99.90
40153;DHT22;26371;56.992;23.912;2022-10-31T14:31:34;8.00;99.90
40153;DHT22;26371;56.992;23.912;2022-10-31T14:34:22;8.00;99.90
40153;DHT22;26371;56.992;23.912;2022-10-31T14:37:14;8.00;99.90
40153;DHT22;26371;56.992;23.912;2022-10-31T14:39:53;7.90;99.90
40153;DHT22;26371;56.992;23.912;2022-10-31T14:42:40;7.90;99.90
40153;DHT22;26371;56.992;23.912;2022-10-31T14:45:21;7.90;99.90
40153;DHT22;26371;56.992;23.912;2022-10-31T14:48:08;7.90;99.90
40153;DHT22;26371;56.992;23.912;2022-10-31T14:50:45;7.80;99.90
40153;DHT22;26371;56.992;23.912;2022-10-31T14:53:19;7.80;99.90
40153;DHT22;26371;56.992;23.912;2022-10-31T14:55:52;7.70;99.90
40153;DHT22;26371;56.992;23.912;2022-10-31T14:58:24;7.70;99.90
40153;DHT22;26371;56.992;23.912;2022-10-31T15:00:56;7.60;99.90
40153;DHT22;26371;56.992;23.912;2022-10-31T15:03:30;7.50;99.90
40153;DHT22;26371;56.992;23.912;2022-10-31T15:06:04;7.50;99.90
40153;DHT22;26371;56.992;23.912;2022-10-31T15:08:38;7.40;99.90
40153;DHT22;26371;56.992;23.912;2022-10-31T15:11:12;7.40;99.90
40153;DHT22;26371;56.992;23.912;2022-10-31T15:13:45;7.40;99.90
40153;DHT22;26371;56.992;23.912;2022-10-31T15:16:17;7.40;99.90
40153;DHT22;26371;56.992;23.912;2022-10-31T15:18:50;7.40;99.90
40153;DHT22;26371;56.992;23.912;2022-10-31T15:21:23;7.40;99.90
40153;DHT22;26371;56.992;23.912;2022-10-31T15:23:54;7.40;99.90
40153;DHT22;26371;56.992;23.912;2022-10-31T15:26:26;7.30;99.90
40153;DHT22;26371;56.992;23.912;2022-10-31T15:29:00;7.30;99.90
40153;DHT22;26371;56.992;23.912;2022-10-31T15:31:29;7.20;99.90
40153;DHT22;26371;56.992;23.912;2022-10-31T15:34:02;7.20;99.90
40153;DHT22;26371;56.992;23.912;2022-10-31T15:36:33;7.20;99.90
40153;DHT22;26371;56.992;23.912;2022-10-31T15:39:04;7.20;99.90
40153;DHT22;26371;56.992;23.912;2022-10-31T15:41:35;7.20;99.90
40153;DHT22;26371;56.992;23.912;2022-10-31T15:44:12;7.10;99.90
40153;DHT22;26371;56.992;23.912;2022-10-31T15:46:42;7.10;99.90
40153;DHT22;26371;56.992;23.912;2022-10-31T15:49:26;7.10;99.90
40153;DHT22;26371;56.992;23.912;2022-10-31T15:51:57;7.10;99.90
40153;DHT22;26371;56.992;23.912;2022-10-31T15:54:30;7.00;99.90
40153;DHT22;26371;56.992;23.912;2022-10-31T15:56:59;7.00;99.90
40153;DHT22;26371;56.992;23.912;2022-10-31T15:59:28;7.00;99.90
40153;DHT22;26371;56.992;23.912;2022-10-31T16:04:31;6.90;99.90
40153;DHT22;26371;56.992;23.912;2022-10-31T16:07:02;6.90;99.90
40153;DHT22;26371;56.992;23.912;2022-10-31T16:09:31;6.90;99.90
40153;DHT22;26371;56.992;23.912;2022-10-31T16:11:59;6.90;99.90
40153;DHT22;26371;56.992;23.912;2022-10-31T16:14:31;6.90;99.90
40153;DHT22;26371;56.992;23.912;2022-10-31T16:17:04;6.90;99.90
40153;DHT22;26371;56.992;23.912;2022-10-31T16:19:35;6.90;99.90
40153;DHT22;26371;56.992;23.912;2022-10-31T16:22:08;6.80;99.90
40153;DHT22;26371;56.992;23.912;2022-10-31T16:24:45;6.80;99.90
40153;DHT22;26371;56.992;23.912;2022-10-31T16:27:18;6.70;99.90